San Luis Obispo, CA (93401)

11:49 AM PDT on September 01, 2015 (GMT -0700)
Lawrence Drive, San Luis Obispo | | Change Station
CLOSE
Current Station
Personal Weather Station
Location: San Luis Obispo, CA
Elevation: 246 ft
Nearby Weather Stations

Elev 246 ft 35.26 °N, 120.66 °W | Updated 0 second ago

Overcast
Overcast
71.2 °F
Feels Like 73 °F
N
1.6
Wind Variable Wind from ENE
Gusts 4.5 mph

Today
High -- | Low -- °F
--% Chance of Precip.
Yesterday
High -- | Low -- °F
Precip. -- in
6:34 AM 7:29 PM
Waning Gibbous, 87% visible
Pressure 29.96 in
Visibility 10.0 miles
Clouds Overcast 1300 ft
Heat Index 73 °F
Dew Point 64 °F
Humidity 77%
Rainfall 0.00 in
Snow Depth Not available.
UV 0.0 out of 12
Pollen 8.60 out of 12
Air Quality Not available.
Flu Activity Not available.
METAR KSBP 011756Z 16008KT 10SM OVC013 18/14 A2997 RMK AO2 SLP146 T01830139 10183 20161 53005
Pressure 29.96 in
Visibility 10.0 miles
Clouds Overcast 1300 ft
Heat Index 73 °F
Dew Point 64 °F
Humidity 77%
Rainfall 0.00 in
Snow Depth Not available.
UV 0.0 out of 12
Pollen 8.60 out of 12
Air Quality Not available.
Flu Activity Not available.
METAR KSBP 011756Z 16008KT 10SM OVC013 18/14 A2997 RMK AO2 SLP146 T01830139 10183 20161 53005

10-Day Weather Forecast

×

Almanac

Astronomy

Sep. 01, 2015 Rise Set
Actual Time
Civil Twilight
Nautical Twilight
Astronomical Twilight
Moon
Length of Visible Light
Length of Day
Tomorrow will be .
, % of the Moon is Illuminated

Today's Extremes

State Highs State Lows

Community

WunderPhotos

Upload Photos

1,851,593 photos uploaded!

WunderBlogs® & News

Nearby

Air Quality

  Air Quality AQ Index Pollutant
Not available.

Snow Depth

Station Depth Elevation

Earthquake Activity

City Distance Mag. Time & Date
Minimum magnitude displayed is 2.5.

Coastal Water Temperatures

Place Temperature

Stations

Nearby Weather Stations

Station Location Temp. Windchill Dew Point Humidity Wind Precip. Elev Updated Type